sensor_id;sensor_type;location;lat;lon;timestamp;P1;durP1;ratioP1;P2;durP2;ratioP2
28623;SDS011;15813;46.932;19.658;2023-04-07T00:00:40;53.53;;;25.02;;
28623;SDS011;15813;46.932;19.658;2023-04-07T00:03:05;56.25;;;25.90;;
28623;SDS011;15813;46.932;19.658;2023-04-07T00:05:31;58.20;;;25.98;;
28623;SDS011;15813;46.932;19.658;2023-04-07T00:07:57;57.63;;;26.83;;
28623;SDS011;15813;46.932;19.658;2023-04-07T00:10:22;52.15;;;25.45;;
28623;SDS011;15813;46.932;19.658;2023-04-07T00:12:48;58.63;;;28.20;;
28623;SDS011;15813;46.932;19.658;2023-04-07T00:15:13;60.92;;;28.08;;
28623;SDS011;15813;46.932;19.658;2023-04-07T00:17:38;57.08;;;26.92;;
28623;SDS011;15813;46.932;19.658;2023-04-07T00:20:04;55.40;;;24.95;;
28623;SDS011;15813;46.932;19.658;2023-04-07T00:22:29;60.85;;;25.55;;
28623;SDS011;15813;46.932;19.658;2023-04-07T00:24:55;52.47;;;25.75;;
28623;SDS011;15813;46.932;19.658;2023-04-07T00:27:20;59.10;;;27.23;;
28623;SDS011;15813;46.932;19.658;2023-04-07T00:29:47;52.58;;;26.23;;
28623;SDS011;15813;46.932;19.658;2023-04-07T00:32:12;56.40;;;27.40;;
28623;SDS011;15813;46.932;19.658;2023-04-07T00:34:37;51.95;;;25.02;;
28623;SDS011;15813;46.932;19.658;2023-04-07T00:37:03;57.03;;;25.60;;
28623;SDS011;15813;46.932;19.658;2023-04-07T00:39:31;57.35;;;26.08;;
28623;SDS011;15813;46.932;19.658;2023-04-07T00:41:56;50.15;;;26.52;;
28623;SDS011;15813;46.932;19.658;2023-04-07T00:44:21;56.42;;;25.80;;
28623;SDS011;15813;46.932;19.658;2023-04-07T00:46:47;55.47;;;27.08;;
28623;SDS011;15813;46.932;19.658;2023-04-07T00:49:12;57.22;;;25.98;;
28623;SDS011;15813;46.932;19.658;2023-04-07T00:51:38;56.22;;;26.52;;
28623;SDS011;15813;46.932;19.658;2023-04-07T00:54:03;59.88;;;26.38;;
28623;SDS011;15813;46.932;19.658;2023-04-07T00:56:29;60.00;;;28.48;;
28623;SDS011;15813;46.932;19.658;2023-04-07T00:58:54;60.10;;;28.15;;
28623;SDS011;15813;46.932;19.658;2023-04-07T01:04:08;57.33;;;26.60;;
28623;SDS011;15813;46.932;19.658;2023-04-07T01:06:37;55.30;;;27.37;;
28623;SDS011;15813;46.932;19.658;2023-04-07T01:09:06;58.38;;;28.17;;
28623;SDS011;15813;46.932;19.658;2023-04-07T01:11:34;53.53;;;26.60;;
28623;SDS011;15813;46.932;19.658;2023-04-07T01:14:01;61.22;;;27.80;;
28623;SDS011;15813;46.932;19.658;2023-04-07T01:16:31;58.30;;;27.40;;
28623;SDS011;15813;46.932;19.658;2023-04-07T01:18:59;60.97;;;28.75;;
28623;SDS011;15813;46.932;19.658;2023-04-07T01:21:26;54.03;;;26.20;;
28623;SDS011;15813;46.932;19.658;2023-04-07T01:26:36;57.78;;;27.42;;
28623;SDS011;15813;46.932;19.658;2023-04-07T01:31:46;61.35;;;28.15;;
28623;SDS011;15813;46.932;19.658;2023-04-07T01:34:12;58.95;;;27.65;;
28623;SDS011;15813;46.932;19.658;2023-04-07T01:36:39;62.17;;;28.80;;
28623;SDS011;15813;46.932;19.658;2023-04-07T01:39:05;60.28;;;28.10;;
28623;SDS011;15813;46.932;19.658;2023-04-07T01:41:31;59.60;;;27.35;;
28623;SDS011;15813;46.932;19.658;2023-04-07T01:43:57;65.53;;;29.67;;
28623;SDS011;15813;46.932;19.658;2023-04-07T01:46:23;61.13;;;29.08;;
28623;SDS011;15813;46.932;19.658;2023-04-07T01:48:48;65.90;;;30.27;;
28623;SDS011;15813;46.932;19.658;2023-04-07T01:51:15;62.95;;;29.83;;
28623;SDS011;15813;46.932;19.658;2023-04-07T01:53:41;65.28;;;30.88;;
28623;SDS011;15813;46.932;19.658;2023-04-07T01:56:07;74.13;;;30.15;;
28623;SDS011;15813;46.932;19.658;2023-04-07T01:58:32;66.20;;;31.13;;
28623;SDS011;15813;46.932;19.658;2023-04-07T02:00:57;75.05;;;31.95;;
28623;SDS011;15813;46.932;19.658;2023-04-07T02:03:23;63.00;;;30.05;;
28623;SDS011;15813;46.932;19.658;2023-04-07T02:05:51;72.85;;;30.70;;
28623;SDS011;15813;46.932;19.658;2023-04-07T02:08:18;66.50;;;30.48;;
28623;SDS011;15813;46.932;19.658;2023-04-07T02:10:45;54.35;;;26.58;;
28623;SDS011;15813;46.932;19.658;2023-04-07T02:13:12;64.03;;;29.05;;
28623;SDS011;15813;46.932;19.658;2023-04-07T02:15:39;61.83;;;28.52;;
28623;SDS011;15813;46.932;19.658;2023-04-07T02:18:05;55.63;;;28.02;;
28623;SDS011;15813;46.932;19.658;2023-04-07T02:20:32;68.05;;;31.40;;
28623;SDS011;15813;46.932;19.658;2023-04-07T02:22:59;67.57;;;29.05;;
28623;SDS011;15813;46.932;19.658;2023-04-07T02:25:25;64.53;;;29.90;;
28623;SDS011;15813;46.932;19.658;2023-04-07T02:27:51;68.28;;;30.83;;
28623;SDS011;15813;46.932;19.658;2023-04-07T02:30:16;63.67;;;30.23;;
28623;SDS011;15813;46.932;19.658;2023-04-07T02:32:41;69.20;;;32.45;;
28623;SDS011;15813;46.932;19.658;2023-04-07T02:35:07;63.13;;;30.05;;
28623;SDS011;15813;46.932;19.658;2023-04-07T02:37:32;71.95;;;32.17;;
28623;SDS011;15813;46.932;19.658;2023-04-07T02:39:57;72.78;;;31.67;;
28623;SDS011;15813;46.932;19.658;2023-04-07T02:42:22;66.32;;;30.77;;
28623;SDS011;15813;46.932;19.658;2023-04-07T02:44:49;70.18;;;31.05;;
28623;SDS011;15813;46.932;19.658;2023-04-07T02:47:14;69.53;;;32.35;;
28623;SDS011;15813;46.932;19.658;2023-04-07T02:49:39;64.05;;;31.92;;
28623;SDS011;15813;46.932;19.658;2023-04-07T02:52:05;64.32;;;30.05;;
28623;SDS011;15813;46.932;19.658;2023-04-07T02:54:30;68.25;;;30.13;;
28623;SDS011;15813;46.932;19.658;2023-04-07T02:56:55;69.75;;;31.05;;
28623;SDS011;15813;46.932;19.658;2023-04-07T02:59:21;63.10;;;29.42;;
28623;SDS011;15813;46.932;19.658;2023-04-07T03:01:46;65.43;;;27.92;;
28623;SDS011;15813;46.932;19.658;2023-04-07T03:04:11;66.93;;;29.30;;
28623;SDS011;15813;46.932;19.658;2023-04-07T03:06:37;62.00;;;28.92;;
28623;SDS011;15813;46.932;19.658;2023-04-07T03:09:02;65.78;;;29.45;;
28623;SDS011;15813;46.932;19.658;2023-04-07T03:11:27;64.88;;;31.45;;
28623;SDS011;15813;46.932;19.658;2023-04-07T03:13:53;64.50;;;28.25;;
28623;SDS011;15813;46.932;19.658;2023-04-07T03:16:18;71.95;;;29.58;;
28623;SDS011;15813;46.932;19.658;2023-04-07T03:18:43;60.05;;;28.50;;
28623;SDS011;15813;46.932;19.658;2023-04-07T03:21:09;66.63;;;29.48;;
28623;SDS011;15813;46.932;19.658;2023-04-07T03:23:34;66.65;;;30.23;;
28623;SDS011;15813;46.932;19.658;2023-04-07T03:26:00;60.90;;;28.13;;
28623;SDS011;15813;46.932;19.658;2023-04-07T03:28:25;61.10;;;30.08;;
28623;SDS011;15813;46.932;19.658;2023-04-07T03:30:50;61.97;;;27.55;;
28623;SDS011;15813;46.932;19.658;2023-04-07T03:33:16;58.28;;;28.90;;
28623;SDS011;15813;46.932;19.658;2023-04-07T03:35:41;61.17;;;28.20;;
28623;SDS011;15813;46.932;19.658;2023-04-07T03:38:06;61.47;;;28.92;;
28623;SDS011;15813;46.932;19.658;2023-04-07T03:40:32;62.28;;;29.00;;
28623;SDS011;15813;46.932;19.658;2023-04-07T03:42:57;64.88;;;29.45;;
28623;SDS011;15813;46.932;19.658;2023-04-07T03:45:22;62.60;;;30.83;;
28623;SDS011;15813;46.932;19.658;2023-04-07T03:47:48;59.55;;;29.30;;
28623;SDS011;15813;46.932;19.658;2023-04-07T03:50:13;61.53;;;30.10;;
28623;SDS011;15813;46.932;19.658;2023-04-07T03:52:38;57.67;;;27.00;;
28623;SDS011;15813;46.932;19.658;2023-04-07T03:55:04;179.77;;;69.47;;
28623;SDS011;15813;46.932;19.658;2023-04-07T03:57:30;171.55;;;63.20;;
28623;SDS011;15813;46.932;19.658;2023-04-07T03:59:55;67.85;;;32.08;;
28623;SDS011;15813;46.932;19.658;2023-04-07T04:02:20;59.10;;;28.98;;
28623;SDS011;15813;46.932;19.658;2023-04-07T04:04:46;65.32;;;29.17;;
28623;SDS011;15813;46.932;19.658;2023-04-07T04:07:11;65.22;;;29.35;;
28623;SDS011;15813;46.932;19.658;2023-04-07T04:09:36;59.15;;;27.30;;
28623;SDS011;15813;46.932;19.658;2023-04-07T04:12:01;66.05;;;29.70;;
28623;SDS011;15813;46.932;19.658;2023-04-07T04:14:27;63.47;;;28.00;;
28623;SDS011;15813;46.932;19.658;2023-04-07T04:16:52;63.15;;;29.42;;
28623;SDS011;15813;46.932;19.658;2023-04-07T04:19:17;65.65;;;27.98;;
28623;SDS011;15813;46.932;19.658;2023-04-07T04:21:43;67.43;;;30.38;;
28623;SDS011;15813;46.932;19.658;2023-04-07T04:24:08;92.05;;;40.88;;
28623;SDS011;15813;46.932;19.658;2023-04-07T04:26:33;78.47;;;33.28;;
28623;SDS011;15813;46.932;19.658;2023-04-07T04:28:58;81.03;;;36.10;;
28623;SDS011;15813;46.932;19.658;2023-04-07T04:31:24;79.15;;;32.95;;
28623;SDS011;15813;46.932;19.658;2023-04-07T04:33:49;68.45;;;31.42;;
28623;SDS011;15813;46.932;19.658;2023-04-07T04:36:14;70.88;;;31.63;;
28623;SDS011;15813;46.932;19.658;2023-04-07T04:38:40;71.38;;;31.10;;
28623;SDS011;15813;46.932;19.658;2023-04-07T04:41:05;68.85;;;29.88;;
28623;SDS011;15813;46.932;19.658;2023-04-07T04:43:30;66.03;;;31.33;;
28623;SDS011;15813;46.932;19.658;2023-04-07T04:45:56;72.50;;;31.85;;
28623;SDS011;15813;46.932;19.658;2023-04-07T04:48:21;73.28;;;32.50;;
28623;SDS011;15813;46.932;19.658;2023-04-07T04:50:47;67.47;;;30.38;;
28623;SDS011;15813;46.932;19.658;2023-04-07T04:53:12;68.10;;;31.70;;
28623;SDS011;15813;46.932;19.658;2023-04-07T04:55:37;74.90;;;30.90;;
28623;SDS011;15813;46.932;19.658;2023-04-07T04:58:04;73.50;;;32.22;;
28623;SDS011;15813;46.932;19.658;2023-04-07T05:00:30;65.93;;;31.83;;
28623;SDS011;15813;46.932;19.658;2023-04-07T05:02:55;78.70;;;31.92;;
28623;SDS011;15813;46.932;19.658;2023-04-07T05:05:20;68.60;;;32.22;;
28623;SDS011;15813;46.932;19.658;2023-04-07T05:07:46;61.72;;;29.77;;
28623;SDS011;15813;46.932;19.658;2023-04-07T05:10:11;64.47;;;31.27;;
28623;SDS011;15813;46.932;19.658;2023-04-07T05:12:36;66.75;;;31.20;;
28623;SDS011;15813;46.932;19.658;2023-04-07T05:15:02;66.28;;;30.67;;
28623;SDS011;15813;46.932;19.658;2023-04-07T05:17:27;71.38;;;31.92;;
28623;SDS011;15813;46.932;19.658;2023-04-07T05:19:52;68.30;;;31.80;;
28623;SDS011;15813;46.932;19.658;2023-04-07T05:22:17;66.97;;;31.45;;
28623;SDS011;15813;46.932;19.658;2023-04-07T05:24:43;71.47;;;32.03;;
28623;SDS011;15813;46.932;19.658;2023-04-07T05:27:08;75.03;;;33.20;;
28623;SDS011;15813;46.932;19.658;2023-04-07T05:29:33;74.30;;;33.13;;
28623;SDS011;15813;46.932;19.658;2023-04-07T05:31:59;82.68;;;34.53;;
28623;SDS011;15813;46.932;19.658;2023-04-07T05:34:25;67.53;;;32.15;;
28623;SDS011;15813;46.932;19.658;2023-04-07T05:36:51;66.07;;;32.58;;
28623;SDS011;15813;46.932;19.658;2023-04-07T05:39:16;72.18;;;31.08;;
28623;SDS011;15813;46.932;19.658;2023-04-07T05:41:41;69.10;;;32.08;;
28623;SDS011;15813;46.932;19.658;2023-04-07T05:44:07;68.50;;;31.52;;
28623;SDS011;15813;46.932;19.658;2023-04-07T05:46:32;66.30;;;30.88;;
28623;SDS011;15813;46.932;19.658;2023-04-07T05:48:57;69.88;;;31.35;;
28623;SDS011;15813;46.932;19.658;2023-04-07T05:51:23;66.88;;;30.70;;
28623;SDS011;15813;46.932;19.658;2023-04-07T05:53:48;63.72;;;29.10;;
28623;SDS011;15813;46.932;19.658;2023-04-07T05:56:13;65.00;;;28.95;;
28623;SDS011;15813;46.932;19.658;2023-04-07T05:58:38;72.35;;;32.20;;
28623;SDS011;15813;46.932;19.658;2023-04-07T06:01:04;68.80;;;31.20;;
28623;SDS011;15813;46.932;19.658;2023-04-07T06:03:29;62.15;;;30.73;;
28623;SDS011;15813;46.932;19.658;2023-04-07T06:05:56;67.80;;;32.45;;
28623;SDS011;15813;46.932;19.658;2023-04-07T06:08:22;73.80;;;31.75;;
28623;SDS011;15813;46.932;19.658;2023-04-07T06:10:47;70.97;;;31.25;;
28623;SDS011;15813;46.932;19.658;2023-04-07T06:13:13;67.95;;;30.98;;
28623;SDS011;15813;46.932;19.658;2023-04-07T06:15:38;64.63;;;30.35;;
28623;SDS011;15813;46.932;19.658;2023-04-07T06:18:03;72.20;;;31.23;;
28623;SDS011;15813;46.932;19.658;2023-04-07T06:20:28;62.13;;;29.67;;
28623;SDS011;15813;46.932;19.658;2023-04-07T06:22:54;70.57;;;31.92;;
28623;SDS011;15813;46.932;19.658;2023-04-07T06:25:19;60.70;;;28.98;;
28623;SDS011;15813;46.932;19.658;2023-04-07T06:27:45;65.68;;;30.23;;
28623;SDS011;15813;46.932;19.658;2023-04-07T06:30:11;64.40;;;30.48;;
28623;SDS011;15813;46.932;19.658;2023-04-07T06:32:36;67.60;;;30.45;;
28623;SDS011;15813;46.932;19.658;2023-04-07T06:35:01;63.75;;;30.42;;
28623;SDS011;15813;46.932;19.658;2023-04-07T06:37:27;68.43;;;30.65;;
28623;SDS011;15813;46.932;19.658;2023-04-07T06:39:52;65.60;;;30.25;;
28623;SDS011;15813;46.932;19.658;2023-04-07T06:42:18;64.25;;;30.52;;
28623;SDS011;15813;46.932;19.658;2023-04-07T06:44:43;64.40;;;30.30;;
28623;SDS011;15813;46.932;19.658;2023-04-07T06:47:08;63.47;;;28.88;;
28623;SDS011;15813;46.932;19.658;2023-04-07T06:49:33;63.33;;;28.55;;
28623;SDS011;15813;46.932;19.658;2023-04-07T06:51:59;56.78;;;28.15;;
28623;SDS011;15813;46.932;19.658;2023-04-07T06:54:24;54.25;;;26.92;;
28623;SDS011;15813;46.932;19.658;2023-04-07T06:56:50;62.03;;;29.05;;
28623;SDS011;15813;46.932;19.658;2023-04-07T06:59:15;56.00;;;25.83;;
28623;SDS011;15813;46.932;19.658;2023-04-07T07:01:40;52.85;;;26.48;;
28623;SDS011;15813;46.932;19.658;2023-04-07T07:04:06;54.20;;;27.55;;
28623;SDS011;15813;46.932;19.658;2023-04-07T07:06:31;54.88;;;26.65;;
28623;SDS011;15813;46.932;19.658;2023-04-07T07:08:57;53.75;;;27.50;;
28623;SDS011;15813;46.932;19.658;2023-04-07T07:11:22;609.60;;;153.45;;
28623;SDS011;15813;46.932;19.658;2023-04-07T07:13:47;584.67;;;144.40;;
28623;SDS011;15813;46.932;19.658;2023-04-07T07:16:13;527.47;;;147.43;;
28623;SDS011;15813;46.932;19.658;2023-04-07T07:18:38;521.00;;;148.93;;
28623;SDS011;15813;46.932;19.658;2023-04-07T07:21:03;549.30;;;150.68;;
28623;SDS011;15813;46.932;19.658;2023-04-07T07:23:29;652.75;;;163.90;;
28623;SDS011;15813;46.932;19.658;2023-04-07T07:25:54;559.88;;;152.13;;
28623;SDS011;15813;46.932;19.658;2023-04-07T07:28:19;569.63;;;155.57;;
28623;SDS011;15813;46.932;19.658;2023-04-07T07:30:46;603.22;;;156.52;;
28623;SDS011;15813;46.932;19.658;2023-04-07T07:33:11;621.83;;;158.90;;
28623;SDS011;15813;46.932;19.658;2023-04-07T07:35:36;574.25;;;159.68;;
28623;SDS011;15813;46.932;19.658;2023-04-07T07:38:02;563.95;;;156.52;;
28623;SDS011;15813;46.932;19.658;2023-04-07T07:40:27;579.45;;;155.00;;
28623;SDS011;15813;46.932;19.658;2023-04-07T07:42:54;537.95;;;167.73;;
28623;SDS011;15813;46.932;19.658;2023-04-07T07:45:19;445.75;;;154.82;;
28623;SDS011;15813;46.932;19.658;2023-04-07T07:47:44;441.05;;;146.43;;
28623;SDS011;15813;46.932;19.658;2023-04-07T07:50:10;448.17;;;152.77;;
28623;SDS011;15813;46.932;19.658;2023-04-07T07:52:35;438.40;;;151.45;;
28623;SDS011;15813;46.932;19.658;2023-04-07T07:55:00;425.30;;;144.38;;
28623;SDS011;15813;46.932;19.658;2023-04-07T07:57:26;443.65;;;147.07;;
28623;SDS011;15813;46.932;19.658;2023-04-07T07:59:51;459.08;;;155.55;;
28623;SDS011;15813;46.932;19.658;2023-04-07T08:02:17;446.08;;;147.85;;
28623;SDS011;15813;46.932;19.658;2023-04-07T08:04:42;463.23;;;171.60;;
28623;SDS011;15813;46.932;19.658;2023-04-07T08:07:08;456.85;;;164.32;;
28623;SDS011;15813;46.932;19.658;2023-04-07T08:09:33;455.73;;;160.32;;
28623;SDS011;15813;46.932;19.658;2023-04-07T08:11:59;443.55;;;162.07;;
28623;SDS011;15813;46.932;19.658;2023-04-07T08:14:25;440.77;;;156.82;;
28623;SDS011;15813;46.932;19.658;2023-04-07T08:16:50;456.40;;;164.27;;
28623;SDS011;15813;46.932;19.658;2023-04-07T08:19:16;443.60;;;160.05;;
28623;SDS011;15813;46.932;19.658;2023-04-07T08:21:41;445.23;;;163.25;;
28623;SDS011;15813;46.932;19.658;2023-04-07T08:24:07;470.52;;;159.23;;
28623;SDS011;15813;46.932;19.658;2023-04-07T08:26:33;460.83;;;161.30;;
28623;SDS011;15813;46.932;19.658;2023-04-07T08:28:58;478.20;;;156.10;;
28623;SDS011;15813;46.932;19.658;2023-04-07T08:31:23;502.33;;;157.55;;
28623;SDS011;15813;46.932;19.658;2023-04-07T08:33:49;567.03;;;173.48;;
28623;SDS011;15813;46.932;19.658;2023-04-07T08:36:18;229.98;;;122.97;;
28623;SDS011;15813;46.932;19.658;2023-04-07T08:38:44;271.60;;;133.88;;
28623;SDS011;15813;46.932;19.658;2023-04-07T08:41:10;283.25;;;137.35;;
28623;SDS011;15813;46.932;19.658;2023-04-07T08:43:36;327.63;;;148.48;;
28623;SDS011;15813;46.932;19.658;2023-04-07T08:46:02;371.67;;;150.85;;
28623;SDS011;15813;46.932;19.658;2023-04-07T08:48:28;426.77;;;159.90;;
28623;SDS011;15813;46.932;19.658;2023-04-07T08:50:57;401.00;;;150.45;;
28623;SDS011;15813;46.932;19.658;2023-04-07T08:53:25;348.08;;;141.15;;
28623;SDS011;15813;46.932;19.658;2023-04-07T08:58:18;304.48;;;126.57;;
28623;SDS011;15813;46.932;19.658;2023-04-07T09:00:44;324.10;;;132.20;;
28623;SDS011;15813;46.932;19.658;2023-04-07T09:03:13;308.77;;;134.98;;
28623;SDS011;15813;46.932;19.658;2023-04-07T09:05:38;324.27;;;137.95;;
28623;SDS011;15813;46.932;19.658;2023-04-07T09:08:03;351.77;;;145.90;;
28623;SDS011;15813;46.932;19.658;2023-04-07T09:10:29;337.60;;;137.60;;
28623;SDS011;15813;46.932;19.658;2023-04-07T09:12:56;333.98;;;139.98;;
28623;SDS011;15813;46.932;19.658;2023-04-07T09:15:22;313.48;;;135.15;;
28623;SDS011;15813;46.932;19.658;2023-04-07T09:17:47;368.30;;;140.32;;
28623;SDS011;15813;46.932;19.658;2023-04-07T09:20:12;332.33;;;134.60;;
28623;SDS011;15813;46.932;19.658;2023-04-07T09:22:39;336.42;;;133.68;;
28623;SDS011;15813;46.932;19.658;2023-04-07T09:25:17;366.25;;;133.43;;
28623;SDS011;15813;46.932;19.658;2023-04-07T09:28:01;363.27;;;134.75;;
28623;SDS011;15813;46.932;19.658;2023-04-07T09:30:30;360.55;;;134.15;;
28623;SDS011;15813;46.932;19.658;2023-04-07T09:32:56;382.88;;;139.00;;
28623;SDS011;15813;46.932;19.658;2023-04-07T09:35:21;415.33;;;145.55;;
28623;SDS011;15813;46.932;19.658;2023-04-07T09:40:45;487.25;;;161.73;;
28623;SDS011;15813;46.932;19.658;2023-04-07T09:43:16;299.17;;;134.68;;
28623;SDS011;15813;46.932;19.658;2023-04-07T09:45:41;264.48;;;127.60;;
28623;SDS011;15813;46.932;19.658;2023-04-07T09:48:07;264.00;;;131.80;;
28623;SDS011;15813;46.932;19.658;2023-04-07T09:50:33;242.57;;;133.68;;
28623;SDS011;15813;46.932;19.658;2023-04-07T09:53:01;331.27;;;141.88;;
28623;SDS011;15813;46.932;19.658;2023-04-07T09:55:27;541.60;;;173.82;;
28623;SDS011;15813;46.932;19.658;2023-04-07T09:57:53;469.80;;;158.93;;
28623;SDS011;15813;46.932;19.658;2023-04-07T10:00:20;303.55;;;137.02;;
28623;SDS011;15813;46.932;19.658;2023-04-07T10:02:45;275.52;;;137.88;;
28623;SDS011;15813;46.932;19.658;2023-04-07T10:05:12;288.23;;;142.23;;
28623;SDS011;15813;46.932;19.658;2023-04-07T10:07:37;293.20;;;144.20;;
28623;SDS011;15813;46.932;19.658;2023-04-07T10:10:03;340.55;;;147.23;;
28623;SDS011;15813;46.932;19.658;2023-04-07T10:12:28;126.63;;;95.55;;
28623;SDS011;15813;46.932;19.658;2023-04-07T10:14:55;134.73;;;98.95;;
28623;SDS011;15813;46.932;19.658;2023-04-07T10:17:21;153.23;;;108.05;;
28623;SDS011;15813;46.932;19.658;2023-04-07T10:19:46;95.10;;;79.00;;
28623;SDS011;15813;46.932;19.658;2023-04-07T10:22:12;132.60;;;101.78;;
28623;SDS011;15813;46.932;19.658;2023-04-07T10:24:55;146.77;;;107.35;;
28623;SDS011;15813;46.932;19.658;2023-04-07T10:27:21;97.32;;;78.15;;
28623;SDS011;15813;46.932;19.658;2023-04-07T10:29:48;91.13;;;77.20;;
28623;SDS011;15813;46.932;19.658;2023-04-07T10:32:15;101.10;;;84.97;;
28623;SDS011;15813;46.932;19.658;2023-04-07T10:37:17;132.63;;;100.85;;
28623;SDS011;15813;46.932;19.658;2023-04-07T10:39:45;94.55;;;80.40;;
28623;SDS011;15813;46.932;19.658;2023-04-07T10:45:14;65.95;;;54.40;;
28623;SDS011;15813;46.932;19.658;2023-04-07T10:50:24;66.05;;;50.38;;
28623;SDS011;15813;46.932;19.658;2023-04-07T11:03:21;62.38;;;42.55;;
28623;SDS011;15813;46.932;19.658;2023-04-07T11:05:46;51.58;;;34.65;;
28623;SDS011;15813;46.932;19.658;2023-04-07T11:08:12;55.55;;;34.85;;
28623;SDS011;15813;46.932;19.658;2023-04-07T11:10:37;55.92;;;36.15;;
28623;SDS011;15813;46.932;19.658;2023-04-07T11:13:06;51.70;;;37.85;;
28623;SDS011;15813;46.932;19.658;2023-04-07T11:15:32;49.67;;;33.17;;
28623;SDS011;15813;46.932;19.658;2023-04-07T11:18:11;45.42;;;28.13;;
28623;SDS011;15813;46.932;19.658;2023-04-07T11:20:40;50.92;;;27.05;;
28623;SDS011;15813;46.932;19.658;2023-04-07T11:23:06;50.35;;;29.88;;
28623;SDS011;15813;46.932;19.658;2023-04-07T11:25:31;55.30;;;30.25;;
28623;SDS011;15813;46.932;19.658;2023-04-07T11:27:58;51.05;;;34.38;;
28623;SDS011;15813;46.932;19.658;2023-04-07T11:30:23;50.22;;;33.47;;
28623;SDS011;15813;46.932;19.658;2023-04-07T11:32:48;47.75;;;30.95;;
28623;SDS011;15813;46.932;19.658;2023-04-07T11:35:14;54.97;;;35.15;;
28623;SDS011;15813;46.932;19.658;2023-04-07T11:37:40;52.35;;;28.52;;
28623;SDS011;15813;46.932;19.658;2023-04-07T11:40:06;59.38;;;34.47;;
28623;SDS011;15813;46.932;19.658;2023-04-07T11:42:38;57.05;;;30.48;;
28623;SDS011;15813;46.932;19.658;2023-04-07T11:45:04;48.88;;;33.28;;
28623;SDS011;15813;46.932;19.658;2023-04-07T11:47:36;49.30;;;27.08;;
28623;SDS011;15813;46.932;19.658;2023-04-07T11:50:01;49.63;;;29.15;;
28623;SDS011;15813;46.932;19.658;2023-04-07T11:52:27;51.45;;;34.55;;
28623;SDS011;15813;46.932;19.658;2023-04-07T11:54:52;50.45;;;30.60;;
28623;SDS011;15813;46.932;19.658;2023-04-07T11:57:24;61.47;;;38.75;;
28623;SDS011;15813;46.932;19.658;2023-04-07T11:59:50;59.28;;;43.85;;
28623;SDS011;15813;46.932;19.658;2023-04-07T12:02:30;56.75;;;42.53;;
28623;SDS011;15813;46.932;19.658;2023-04-07T12:04:56;55.42;;;45.60;;
28623;SDS011;15813;46.932;19.658;2023-04-07T12:07:21;55.03;;;35.80;;
28623;SDS011;15813;46.932;19.658;2023-04-07T12:09:47;60.38;;;39.53;;
28623;SDS011;15813;46.932;19.658;2023-04-07T12:12:12;55.05;;;37.70;;
28623;SDS011;15813;46.932;19.658;2023-04-07T12:14:38;56.13;;;38.50;;
28623;SDS011;15813;46.932;19.658;2023-04-07T12:17:03;61.15;;;44.50;;
28623;SDS011;15813;46.932;19.658;2023-04-07T12:19:29;58.67;;;39.53;;
28623;SDS011;15813;46.932;19.658;2023-04-07T12:21:56;60.60;;;39.70;;
28623;SDS011;15813;46.932;19.658;2023-04-07T12:24:22;52.55;;;34.58;;
28623;SDS011;15813;46.932;19.658;2023-04-07T12:26:47;56.08;;;38.95;;
28623;SDS011;15813;46.932;19.658;2023-04-07T12:29:13;53.15;;;35.25;;
28623;SDS011;15813;46.932;19.658;2023-04-07T12:31:38;52.63;;;36.00;;
28623;SDS011;15813;46.932;19.658;2023-04-07T12:34:03;54.67;;;38.40;;
28623;SDS011;15813;46.932;19.658;2023-04-07T12:36:29;62.75;;;41.42;;
28623;SDS011;15813;46.932;19.658;2023-04-07T12:38:54;61.45;;;44.47;;
28623;SDS011;15813;46.932;19.658;2023-04-07T12:41:20;56.10;;;38.70;;
28623;SDS011;15813;46.932;19.658;2023-04-07T12:43:45;56.50;;;37.70;;
28623;SDS011;15813;46.932;19.658;2023-04-07T12:46:10;52.17;;;34.20;;
28623;SDS011;15813;46.932;19.658;2023-04-07T12:48:36;51.67;;;33.75;;
28623;SDS011;15813;46.932;19.658;2023-04-07T12:51:06;53.13;;;33.47;;
28623;SDS011;15813;46.932;19.658;2023-04-07T12:53:32;60.20;;;37.28;;
28623;SDS011;15813;46.932;19.658;2023-04-07T12:55:57;58.85;;;41.80;;
28623;SDS011;15813;46.932;19.658;2023-04-07T12:58:23;58.40;;;41.40;;
28623;SDS011;15813;46.932;19.658;2023-04-07T13:00:49;59.83;;;44.92;;
28623;SDS011;15813;46.932;19.658;2023-04-07T13:03:15;62.35;;;46.45;;
28623;SDS011;15813;46.932;19.658;2023-04-07T13:05:40;59.45;;;43.55;;
28623;SDS011;15813;46.932;19.658;2023-04-07T13:08:06;63.70;;;41.03;;
28623;SDS011;15813;46.932;19.658;2023-04-07T13:10:32;58.75;;;36.95;;
28623;SDS011;15813;46.932;19.658;2023-04-07T13:12:57;58.67;;;43.67;;
28623;SDS011;15813;46.932;19.658;2023-04-07T13:15:22;63.03;;;42.20;;
28623;SDS011;15813;46.932;19.658;2023-04-07T13:17:48;58.45;;;42.30;;
28623;SDS011;15813;46.932;19.658;2023-04-07T13:20:13;57.60;;;42.30;;
28623;SDS011;15813;46.932;19.658;2023-04-07T13:22:39;67.07;;;46.22;;
28623;SDS011;15813;46.932;19.658;2023-04-07T13:25:04;68.40;;;49.67;;
28623;SDS011;15813;46.932;19.658;2023-04-07T13:27:30;56.97;;;41.83;;
28623;SDS011;15813;46.932;19.658;2023-04-07T13:29:55;57.88;;;40.80;;
28623;SDS011;15813;46.932;19.658;2023-04-07T13:32:20;68.07;;;48.42;;
28623;SDS011;15813;46.932;19.658;2023-04-07T13:34:46;71.72;;;50.28;;
28623;SDS011;15813;46.932;19.658;2023-04-07T13:37:11;65.20;;;45.95;;
28623;SDS011;15813;46.932;19.658;2023-04-07T13:39:36;70.97;;;51.78;;
28623;SDS011;15813;46.932;19.658;2023-04-07T13:42:02;68.35;;;49.28;;
28623;SDS011;15813;46.932;19.658;2023-04-07T13:44:28;63.85;;;42.15;;
28623;SDS011;15813;46.932;19.658;2023-04-07T13:46:54;64.63;;;47.45;;
28623;SDS011;15813;46.932;19.658;2023-04-07T13:49:20;60.08;;;40.92;;
28623;SDS011;15813;46.932;19.658;2023-04-07T13:51:46;58.97;;;45.40;;
28623;SDS011;15813;46.932;19.658;2023-04-07T13:54:11;68.60;;;53.65;;
28623;SDS011;15813;46.932;19.658;2023-04-07T13:56:37;65.57;;;45.83;;
28623;SDS011;15813;46.932;19.658;2023-04-07T13:59:05;61.53;;;48.60;;
28623;SDS011;15813;46.932;19.658;2023-04-07T14:01:31;64.70;;;45.63;;
28623;SDS011;15813;46.932;19.658;2023-04-07T14:03:57;59.50;;;43.22;;
28623;SDS011;15813;46.932;19.658;2023-04-07T14:06:23;62.00;;;45.85;;
28623;SDS011;15813;46.932;19.658;2023-04-07T14:08:48;66.72;;;48.67;;
28623;SDS011;15813;46.932;19.658;2023-04-07T14:11:17;52.47;;;39.78;;
28623;SDS011;15813;46.932;19.658;2023-04-07T14:13:43;60.22;;;45.08;;
28623;SDS011;15813;46.932;19.658;2023-04-07T14:16:08;57.55;;;38.20;;
28623;SDS011;15813;46.932;19.658;2023-04-07T14:18:33;50.83;;;30.80;;
28623;SDS011;15813;46.932;19.658;2023-04-07T14:20:59;64.35;;;46.13;;
28623;SDS011;15813;46.932;19.658;2023-04-07T14:23:25;58.00;;;38.83;;
28623;SDS011;15813;46.932;19.658;2023-04-07T14:25:50;61.83;;;40.95;;
28623;SDS011;15813;46.932;19.658;2023-04-07T14:28:16;59.65;;;36.72;;